createdAt,value
2022-08-28T00:00:35.520Z,2.28
2022-08-28T00:03:03.123Z,2.85
2022-08-28T00:05:33.386Z,2.97
2022-08-28T00:08:01.201Z,2.55
2022-08-28T00:10:28.982Z,1.60
2022-08-28T00:12:58.087Z,2.25
2022-08-28T00:15:29.400Z,2.25
2022-08-28T00:17:56.841Z,2.58
2022-08-28T00:20:24.609Z,2.58
2022-08-28T00:22:54.648Z,3.08
2022-08-28T00:25:24.134Z,2.42
2022-08-28T00:27:55.853Z,2.08
2022-08-28T00:30:26.011Z,2.97
2022-08-28T00:32:54.295Z,2.83
2022-08-28T00:35:21.799Z,2.85
2022-08-28T00:37:48.930Z,2.60
2022-08-28T00:40:18.603Z,3.55
2022-08-28T00:42:55.935Z,2.88
2022-08-28T00:45:24.309Z,2.03
2022-08-28T00:47:51.770Z,2.15
2022-08-28T00:50:21.650Z,1.70
2022-08-28T00:52:50.645Z,2.83
2022-08-28T00:55:23.507Z,2.30
2022-08-28T00:57:52.142Z,2.15
2022-08-28T01:00:25.034Z,1.40
2022-08-28T01:02:53.165Z,1.70
2022-08-28T01:05:20.871Z,2.05
2022-08-28T01:07:48.499Z,2.10
2022-08-28T01:10:18.257Z,1.70
2022-08-28T01:12:45.494Z,2.05
2022-08-28T01:15:16.576Z,3.03
2022-08-28T01:17:47.413Z,2.13
2022-08-28T01:20:17.346Z,4.60
2022-08-28T01:22:54.090Z,2.63
2022-08-28T01:25:24.708Z,2.45
2022-08-28T01:27:51.851Z,2.25
2022-08-28T01:30:21.581Z,2.60
2022-08-28T01:32:51.668Z,2.90
2022-08-28T01:35:20.562Z,3.25
2022-08-28T01:37:48.041Z,2.20
2022-08-28T01:40:17.689Z,1.98
2022-08-28T01:42:45.097Z,2.67
2022-08-28T01:45:14.523Z,2.25
2022-08-28T01:47:43.047Z,1.90
2022-08-28T01:50:11.524Z,2.65
2022-08-28T01:52:39.719Z,2.85
2022-08-28T01:55:07.889Z,3.83
2022-08-28T01:57:35.342Z,2.65
2022-08-28T02:00:02.552Z,3.15
2022-08-28T02:02:30.534Z,1.85
2022-08-28T02:04:58.234Z,1.83
2022-08-28T02:07:25.371Z,1.80
2022-08-28T02:09:52.691Z,2.40
2022-08-28T02:12:20.650Z,2.33
2022-08-28T02:14:47.813Z,2.60
2022-08-28T02:17:14.970Z,2.30
2022-08-28T02:19:42.139Z,2.22
2022-08-28T02:22:09.437Z,2.75
2022-08-28T02:24:36.699Z,1.70
2022-08-28T02:27:04.471Z,2.15
2022-08-28T02:29:31.630Z,2.10
2022-08-28T02:31:59.116Z,3.58
2022-08-28T02:34:26.287Z,1.92
2022-08-28T02:36:53.500Z,2.58
2022-08-28T02:39:20.701Z,2.13
2022-08-28T02:41:47.831Z,2.60
2022-08-28T02:44:15.035Z,2.17
2022-08-28T02:46:42.173Z,4.57
2022-08-28T02:49:09.660Z,2.67
2022-08-28T02:51:36.827Z,2.85
2022-08-28T02:54:04.183Z,2.60
2022-08-28T02:56:32.014Z,3.28
2022-08-28T02:58:59.135Z,2.88
2022-08-28T03:01:26.433Z,2.47
2022-08-28T03:03:53.631Z,4.50
2022-08-28T03:06:20.911Z,2.80
2022-08-28T03:08:48.039Z,2.80
2022-08-28T03:11:15.201Z,4.38
2022-08-28T03:13:42.413Z,3.53
2022-08-28T03:16:09.690Z,9.30
2022-08-28T03:18:36.893Z,4.53
2022-08-28T03:21:04.530Z,3.75
2022-08-28T03:23:31.966Z,2.40
2022-08-28T03:26:01.419Z,2.55
2022-08-28T03:28:30.159Z,2.60
2022-08-28T03:30:57.895Z,2.72
2022-08-28T03:33:25.510Z,2.65
2022-08-28T03:35:52.746Z,4.82
2022-08-28T03:38:19.927Z,2.95
2022-08-28T03:40:47.530Z,2.97
2022-08-28T03:43:16.407Z,3.08
2022-08-28T03:45:52.107Z,3.80
2022-08-28T03:48:20.107Z,3.08
2022-08-28T03:50:47.954Z,3.63
2022-08-28T03:53:16.166Z,3.67
2022-08-28T03:55:43.628Z,3.17
2022-08-28T03:58:10.790Z,4.00
2022-08-28T04:00:46.807Z,3.25
2022-08-28T04:03:14.081Z,3.88
2022-08-28T04:05:41.542Z,4.57
2022-08-28T04:08:09.946Z,3.97
2022-08-28T04:10:37.173Z,4.18
2022-08-28T04:13:04.402Z,3.60
2022-08-28T04:15:31.555Z,4.07
2022-08-28T04:17:58.758Z,4.15
2022-08-28T04:20:26.498Z,3.30
2022-08-28T04:22:55.196Z,5.53
2022-08-28T04:25:23.223Z,4.07
2022-08-28T04:27:52.507Z,3.83
2022-08-28T04:30:19.733Z,3.60
2022-08-28T04:32:46.906Z,3.67
2022-08-28T04:35:14.347Z,6.22
2022-08-28T04:37:43.671Z,3.92
2022-08-28T04:40:12.910Z,5.28
2022-08-28T04:42:40.239Z,5.57
2022-08-28T04:45:07.804Z,3.83
2022-08-28T04:47:38.452Z,4.20
2022-08-28T04:50:06.469Z,5.53
2022-08-28T04:52:33.776Z,4.28
2022-08-28T04:55:01.578Z,3.97
2022-08-28T04:57:30.435Z,5.25
2022-08-28T05:00:00.480Z,4.65
2022-08-28T05:02:27.709Z,4.32
2022-08-28T05:04:54.910Z,6.65
2022-08-28T05:07:22.056Z,6.22
2022-08-28T05:09:49.271Z,4.40
2022-08-28T05:12:17.435Z,4.57
2022-08-28T05:14:44.810Z,5.00
2022-08-28T05:17:14.288Z,4.57
2022-08-28T05:19:41.703Z,6.50
2022-08-28T05:22:11.825Z,5.38
2022-08-28T05:24:40.135Z,5.40
2022-08-28T05:27:07.712Z,7.18
2022-08-28T05:29:34.854Z,4.95
2022-08-28T05:32:02.065Z,4.57
2022-08-28T05:34:29.418Z,5.68
2022-08-28T05:36:56.611Z,4.47
2022-08-28T05:39:23.751Z,4.50
2022-08-28T05:41:50.998Z,3.78
2022-08-28T05:44:18.484Z,3.90
2022-08-28T05:46:48.187Z,4.20
2022-08-28T05:49:15.949Z,4.25
2022-08-28T05:51:43.680Z,4.55
2022-08-28T05:54:11.621Z,4.57
2022-08-28T05:56:40.477Z,4.13
2022-08-28T05:59:07.963Z,5.65
2022-08-28T06:01:37.134Z,6.25
2022-08-28T06:04:08.013Z,5.63
2022-08-28T06:06:37.049Z,6.13
2022-08-28T06:09:06.071Z,6.07
2022-08-28T06:11:33.513Z,7.95
2022-08-28T06:14:03.258Z,7.07
2022-08-28T06:16:31.654Z,8.30
2022-08-28T06:18:59.027Z,10.50
2022-08-28T06:21:26.214Z,10.02
2022-08-28T06:23:53.352Z,10.95
2022-08-28T06:26:20.662Z,13.00
2022-08-28T06:28:47.867Z,10.98
2022-08-28T06:31:23.729Z,9.88
2022-08-28T06:33:53.929Z,11.93
2022-08-28T06:36:21.272Z,15.45
2022-08-28T06:38:48.418Z,14.95
2022-08-28T06:41:15.814Z,13.10
2022-08-28T06:43:43.181Z,11.20
2022-08-28T06:46:10.439Z,12.25
2022-08-28T06:48:37.716Z,12.15
2022-08-28T06:51:09.447Z,15.63
2022-08-28T06:53:37.013Z,12.80
2022-08-28T06:56:08.934Z,15.18
2022-08-28T06:58:37.556Z,17.48
2022-08-28T07:01:25.567Z,15.18
2022-08-28T07:03:53.850Z,13.57
2022-08-28T07:06:22.842Z,15.85
2022-08-28T07:08:50.921Z,15.57
2022-08-28T07:11:19.070Z,14.98
2022-08-28T07:13:46.771Z,17.35
2022-08-28T07:16:14.852Z,18.17
2022-08-28T07:18:42.517Z,15.50
2022-08-28T07:21:12.501Z,17.42
2022-08-28T07:23:40.798Z,18.45
2022-08-28T07:26:09.703Z,13.68
2022-08-28T07:28:37.641Z,15.23
2022-08-28T07:31:13.305Z,16.15
2022-08-28T07:33:41.179Z,15.95
2022-08-28T07:36:15.753Z,14.43
2022-08-28T07:38:47.803Z,16.25
2022-08-28T07:41:22.306Z,13.05
2022-08-28T07:44:08.638Z,16.60
2022-08-28T07:46:35.977Z,16.27
2022-08-28T07:49:03.727Z,20.65
2022-08-28T07:51:30.962Z,16.17
2022-08-28T07:53:58.278Z,14.57
2022-08-28T07:56:30.017Z,14.20
2022-08-28T07:58:57.744Z,17.90
2022-08-28T08:01:25.462Z,18.45
2022-08-28T08:03:55.946Z,18.85
2022-08-28T08:06:33.069Z,19.77
2022-08-28T08:09:01.723Z,14.27
2022-08-28T08:11:32.346Z,13.00
2022-08-28T08:14:04.885Z,15.00
2022-08-28T08:16:34.712Z,15.73
2022-08-28T08:19:02.017Z,14.40
2022-08-28T08:21:30.478Z,13.85
2022-08-28T08:23:58.004Z,14.57
2022-08-28T08:26:26.265Z,15.98
2022-08-28T08:28:53.686Z,27.23
2022-08-28T08:31:24.209Z,16.02
2022-08-28T08:33:52.739Z,17.02
2022-08-28T08:36:21.627Z,14.55
2022-08-28T08:38:49.109Z,14.65
2022-08-28T08:41:26.913Z,15.77
2022-08-28T08:43:57.879Z,16.85
2022-08-28T08:46:32.341Z,16.50
2022-08-28T08:49:04.161Z,14.70
2022-08-28T08:51:42.690Z,13.98
2022-08-28T08:54:12.637Z,12.93
2022-08-28T08:56:40.593Z,13.55
2022-08-28T08:59:09.631Z,14.90
2022-08-28T09:01:39.642Z,16.10
2022-08-28T09:04:18.499Z,13.88
2022-08-28T09:06:49.958Z,14.02
2022-08-28T09:09:37.863Z,13.63
2022-08-28T09:12:06.583Z,12.55
2022-08-28T09:14:42.866Z,15.82
2022-08-28T09:17:11.072Z,16.13
2022-08-28T09:19:38.264Z,16.23
2022-08-28T09:22:05.482Z,15.38
2022-08-28T09:24:35.484Z,13.00
2022-08-28T09:27:04.484Z,17.08
2022-08-28T09:29:33.126Z,13.90
2022-08-28T09:32:15.832Z,16.92
2022-08-28T09:34:58.939Z,15.13
2022-08-28T09:37:27.135Z,15.68
2022-08-28T09:40:13.219Z,13.52
2022-08-28T09:42:58.910Z,13.25
2022-08-28T09:45:27.015Z,14.35
2022-08-28T09:47:57.206Z,13.38
2022-08-28T09:50:26.379Z,16.63
2022-08-28T09:52:54.443Z,16.35
2022-08-28T09:55:37.907Z,15.77
2022-08-28T09:58:05.818Z,16.33
2022-08-28T10:00:35.986Z,13.13
2022-08-28T10:03:18.780Z,13.32
2022-08-28T10:06:09.263Z,13.20
2022-08-28T10:08:48.606Z,13.00
2022-08-28T10:11:39.044Z,16.55
2022-08-28T10:14:12.927Z,15.68
2022-08-28T10:16:58.908Z,16.90
2022-08-28T10:19:29.411Z,14.18
2022-08-28T10:22:04.905Z,12.50
2022-08-28T10:24:51.011Z,14.27
2022-08-28T10:27:18.122Z,13.13
2022-08-28T10:29:56.004Z,14.35
2022-08-28T10:32:38.294Z,16.48
2022-08-28T10:35:20.483Z,13.75
2022-08-28T10:37:47.599Z,17.45
2022-08-28T10:40:17.213Z,16.77
2022-08-28T10:42:47.902Z,20.27
2022-08-28T10:45:17.005Z,18.20
2022-08-28T10:47:46.606Z,15.88
2022-08-28T10:50:19.637Z,18.60
2022-08-28T10:52:48.386Z,17.35
2022-08-28T10:55:34.558Z,16.30
2022-08-28T10:58:24.853Z,17.20
2022-08-28T11:00:57.706Z,17.75
2022-08-28T11:03:41.048Z,22.17
2022-08-28T11:06:11.558Z,18.38
2022-08-28T11:08:39.936Z,20.23
2022-08-28T11:11:12.708Z,19.27
2022-08-28T11:13:55.574Z,21.38
2022-08-28T11:16:37.708Z,20.77
2022-08-28T11:19:17.345Z,20.83
2022-08-28T11:21:46.906Z,20.95
2022-08-28T11:24:21.354Z,20.50
2022-08-28T11:26:52.439Z,19.85
2022-08-28T11:29:38.529Z,22.60
2022-08-28T11:32:41.433Z,19.95
2022-08-28T11:35:32.960Z,20.73
2022-08-28T11:38:00.302Z,23.90
2022-08-28T11:40:30.657Z,20.50
2022-08-28T11:43:16.498Z,25.17
2022-08-28T11:45:45.770Z,20.98
2022-08-28T11:48:23.468Z,22.70
2022-08-28T11:50:53.610Z,22.50
2022-08-28T11:53:39.340Z,21.70
2022-08-28T11:56:30.576Z,22.00
2022-08-28T11:59:09.969Z,22.50
2022-08-28T12:01:39.244Z,18.25
2022-08-28T12:04:14.735Z,20.80
2022-08-28T12:07:08.479Z,25.20
2022-08-28T12:09:43.582Z,23.85
2022-08-28T12:12:33.623Z,18.42
2022-08-28T12:15:07.557Z,25.05
2022-08-28T12:17:46.484Z,23.10
2022-08-28T12:20:19.322Z,20.75
2022-08-28T12:22:52.949Z,21.92
2022-08-28T12:25:24.699Z,21.15
2022-08-28T12:27:52.954Z,21.52
2022-08-28T12:30:31.509Z,19.02
2022-08-28T12:33:31.968Z,21.80
2022-08-28T12:36:03.761Z,23.33
2022-08-28T12:38:32.090Z,17.40
2022-08-28T12:40:59.400Z,19.77
2022-08-28T12:43:29.458Z,19.55
2022-08-28T12:46:02.056Z,17.83
2022-08-28T12:48:31.654Z,18.17
2022-08-28T12:51:12.530Z,16.40
2022-08-28T12:53:41.766Z,18.52
2022-08-28T12:56:10.178Z,14.77
2022-08-28T12:58:39.424Z,18.35
2022-08-28T13:01:09.157Z,17.25
2022-08-28T13:03:50.538Z,16.10
2022-08-28T13:06:24.271Z,16.50
2022-08-28T13:08:52.800Z,16.02
2022-08-28T13:11:20.313Z,19.20
2022-08-28T13:13:49.295Z,18.58
2022-08-28T13:16:35.271Z,19.85
2022-08-28T13:19:05.525Z,19.83
2022-08-28T13:21:34.845Z,18.50
2022-08-28T13:24:22.417Z,17.08
2022-08-28T13:27:09.932Z,14.82
2022-08-28T13:29:37.479Z,18.30
2022-08-28T13:32:07.975Z,16.30
2022-08-28T13:34:36.703Z,17.13
2022-08-28T13:37:20.063Z,17.50
2022-08-28T13:39:47.835Z,20.25
2022-08-28T13:42:16.807Z,15.63
2022-08-28T13:44:53.747Z,18.13
2022-08-28T13:47:20.928Z,18.67
2022-08-28T13:49:48.094Z,17.73
2022-08-28T13:52:15.364Z,18.13
2022-08-28T13:54:45.374Z,16.90
2022-08-28T13:57:13.646Z,17.92
2022-08-28T13:59:41.408Z,18.27
2022-08-28T14:02:30.154Z,16.55
2022-08-28T14:04:57.433Z,17.55
2022-08-28T14:07:24.626Z,21.48
2022-08-28T14:09:56.096Z,17.52
2022-08-28T14:12:28.628Z,16.38
2022-08-28T14:15:00.590Z,20.05
2022-08-28T14:17:27.715Z,16.00
2022-08-28T14:19:55.086Z,16.90
2022-08-28T14:22:22.235Z,18.98
2022-08-28T14:24:49.417Z,20.73
2022-08-28T14:27:16.563Z,15.10
2022-08-28T14:29:43.730Z,15.93
2022-08-28T14:32:10.939Z,15.07
2022-08-28T14:34:38.365Z,15.10
2022-08-28T14:37:06.336Z,16.33
2022-08-28T14:39:33.640Z,16.85
2022-08-28T14:42:00.818Z,12.88
2022-08-28T14:44:28.182Z,13.65
2022-08-28T14:46:56.074Z,14.32
2022-08-28T14:49:24.566Z,11.55
2022-08-28T14:51:52.771Z,15.55
2022-08-28T14:54:21.091Z,14.07
2022-08-28T14:56:48.656Z,16.95
2022-08-28T14:59:21.924Z,14.80
2022-08-28T15:01:52.302Z,13.65
2022-08-28T15:04:22.699Z,13.98
2022-08-28T15:06:51.238Z,15.65
2022-08-28T15:09:19.323Z,14.55
2022-08-28T15:11:46.706Z,16.50
2022-08-28T15:14:13.950Z,14.93
2022-08-28T15:16:45.652Z,13.90
2022-08-28T15:19:15.793Z,11.77
2022-08-28T15:21:44.542Z,12.27
2022-08-28T15:24:11.847Z,9.13
2022-08-28T15:26:40.179Z,13.10
2022-08-28T15:29:07.707Z,8.65
2022-08-28T15:31:36.235Z,9.02
2022-08-28T15:34:04.474Z,8.20
2022-08-28T15:36:33.791Z,8.30
2022-08-28T15:39:21.261Z,7.43
2022-08-28T15:41:48.406Z,7.65
2022-08-28T15:44:15.778Z,12.25
2022-08-28T15:46:49.678Z,11.23
2022-08-28T15:49:18.831Z,12.13
2022-08-28T15:51:45.977Z,6.30
2022-08-28T15:54:13.167Z,6.35
2022-08-28T15:56:41.648Z,6.22
2022-08-28T15:59:10.614Z,6.20
2022-08-28T16:01:38.473Z,6.45
2022-08-28T16:04:06.579Z,8.10
2022-08-28T16:06:34.439Z,6.78
2022-08-28T16:09:01.700Z,8.38
2022-08-28T16:11:32.223Z,9.25
2022-08-28T16:14:01.627Z,7.45
2022-08-28T16:16:28.847Z,7.95
2022-08-28T16:18:56.519Z,6.75
2022-08-28T16:21:23.833Z,7.13
2022-08-28T16:23:55.220Z,7.45
2022-08-28T16:26:22.476Z,7.00
2022-08-28T16:28:49.632Z,7.38
2022-08-28T16:31:20.460Z,7.10
2022-08-28T16:33:48.596Z,7.63
2022-08-28T16:36:18.511Z,7.47
2022-08-28T16:38:47.714Z,7.72
2022-08-28T16:41:16.178Z,7.72
2022-08-28T16:43:43.784Z,9.40
2022-08-28T16:46:12.494Z,8.77
2022-08-28T16:48:40.179Z,9.35
2022-08-28T16:51:07.982Z,10.40
2022-08-28T16:53:35.198Z,10.82
2022-08-28T16:56:02.774Z,11.35
2022-08-28T16:58:29.995Z,8.57
2022-08-28T17:00:57.229Z,10.10
2022-08-28T17:03:26.678Z,8.15
2022-08-28T17:05:55.553Z,8.25
2022-08-28T17:08:22.688Z,8.98
2022-08-28T17:10:50.195Z,9.68
2022-08-28T17:13:17.408Z,10.23
2022-08-28T17:15:44.887Z,12.43
2022-08-28T17:18:12.274Z,8.88
2022-08-28T17:20:57.995Z,9.98
2022-08-28T17:23:25.176Z,8.38
2022-08-28T17:25:52.338Z,12.95
2022-08-28T17:28:19.497Z,10.90
2022-08-28T17:30:46.725Z,10.60
2022-08-28T17:33:13.934Z,9.68
2022-08-28T17:35:41.937Z,11.98
2022-08-28T17:38:09.446Z,12.32
2022-08-28T17:40:36.836Z,10.65
2022-08-28T17:43:04.042Z,10.32
2022-08-28T17:45:31.446Z,9.77
2022-08-28T17:47:58.647Z,9.98
2022-08-28T17:50:25.923Z,10.00
2022-08-28T17:52:53.184Z,9.52
2022-08-28T17:55:21.024Z,10.13
2022-08-28T17:57:48.212Z,9.35
2022-08-28T18:00:18.438Z,11.38
2022-08-28T18:02:46.781Z,11.70
2022-08-28T18:05:14.539Z,11.15
2022-08-28T18:07:42.013Z,11.32
2022-08-28T18:10:11.316Z,10.57
2022-08-28T18:12:39.661Z,10.70
2022-08-28T18:15:08.303Z,10.13
2022-08-28T18:17:37.303Z,11.23
2022-08-28T18:20:08.491Z,12.30
2022-08-28T18:22:35.710Z,9.77
2022-08-28T18:25:04.399Z,11.57
2022-08-28T18:27:33.612Z,12.60
2022-08-28T18:30:00.913Z,14.65
2022-08-28T18:32:28.061Z,12.55
2022-08-28T18:34:55.300Z,14.65
2022-08-28T18:37:22.422Z,13.07
2022-08-28T18:39:51.648Z,13.07
2022-08-28T18:42:19.282Z,13.50
2022-08-28T18:44:46.410Z,13.02
2022-08-28T18:47:13.988Z,12.68
2022-08-28T18:49:42.898Z,13.40
2022-08-28T18:52:10.091Z,12.85
2022-08-28T18:54:37.252Z,12.68
2022-08-28T18:57:05.688Z,13.90
2022-08-28T18:59:33.368Z,13.63
2022-08-28T19:02:00.782Z,17.23
2022-08-28T19:04:28.105Z,16.75
2022-08-28T19:06:55.275Z,14.57
2022-08-28T19:09:22.487Z,18.02
2022-08-28T19:11:49.659Z,17.30
2022-08-28T19:14:16.866Z,20.92
2022-08-28T19:16:44.041Z,20.88
2022-08-28T19:19:11.201Z,15.10
2022-08-28T19:21:38.595Z,16.75
2022-08-28T19:24:05.938Z,15.18
2022-08-28T19:26:33.628Z,14.45
2022-08-28T19:29:00.835Z,15.23
2022-08-28T19:31:28.274Z,17.23
2022-08-28T19:33:56.105Z,19.88
2022-08-28T19:36:27.017Z,17.33
2022-08-28T19:38:54.307Z,15.75
2022-08-28T19:41:22.758Z,16.33
2022-08-28T19:43:50.282Z,16.52
2022-08-28T19:46:19.332Z,15.02
2022-08-28T19:48:48.418Z,15.27
2022-08-28T19:51:22.782Z,13.57
2022-08-28T19:53:58.427Z,17.85
2022-08-28T19:56:29.640Z,13.57
2022-08-28T19:58:59.024Z,15.90
2022-08-28T20:01:30.083Z,15.23
2022-08-28T20:03:58.170Z,16.65
2022-08-28T20:06:25.464Z,14.77
2022-08-28T20:08:52.663Z,17.45
2022-08-28T20:11:24.913Z,13.32
2022-08-28T20:13:53.170Z,15.60
2022-08-28T20:16:20.387Z,15.30
2022-08-28T20:18:50.354Z,16.40
2022-08-28T20:21:25.865Z,18.23
2022-08-28T20:24:06.309Z,18.83
2022-08-28T20:26:33.557Z,15.27
2022-08-28T20:29:00.779Z,15.07
2022-08-28T20:31:27.973Z,20.83
2022-08-28T20:33:55.490Z,15.02
2022-08-28T20:36:23.205Z,15.20
2022-08-28T20:38:50.558Z,15.57
2022-08-28T20:41:18.991Z,12.30
2022-08-28T20:43:46.586Z,15.38
2022-08-28T20:46:16.551Z,16.48
2022-08-28T20:48:44.308Z,15.75
2022-08-28T20:51:11.583Z,14.75
2022-08-28T20:53:38.899Z,12.52
2022-08-28T20:56:07.567Z,13.77
2022-08-28T20:58:35.478Z,13.77
2022-08-28T21:01:02.929Z,14.90
2022-08-28T21:03:30.154Z,12.60
2022-08-28T21:05:57.350Z,13.82
2022-08-28T21:08:24.489Z,18.00
2022-08-28T21:10:52.703Z,13.35
2022-08-28T21:13:19.837Z,14.57
2022-08-28T21:15:47.333Z,12.85
2022-08-28T21:18:14.747Z,15.90
2022-08-28T21:20:42.109Z,14.85
2022-08-28T21:23:10.726Z,13.98
2022-08-28T21:25:37.898Z,16.13
2022-08-28T21:28:07.043Z,15.38
2022-08-28T21:30:34.342Z,16.20
2022-08-28T21:33:01.607Z,15.57
2022-08-28T21:35:29.031Z,15.85
2022-08-28T21:37:56.179Z,15.27
2022-08-28T21:40:23.508Z,13.98
2022-08-28T21:42:50.754Z,13.98
2022-08-28T21:45:18.356Z,14.05
2022-08-28T21:47:45.526Z,15.20
2022-08-28T21:50:12.856Z,13.45
2022-08-28T21:52:40.318Z,12.88
2022-08-28T21:55:09.100Z,15.07
2022-08-28T21:57:36.591Z,14.90
2022-08-28T22:00:05.622Z,14.77
2022-08-28T22:02:33.213Z,15.40
2022-08-28T22:05:00.489Z,15.57
2022-08-28T22:07:27.676Z,13.88
2022-08-28T22:09:54.887Z,15.75
2022-08-28T22:12:22.050Z,13.68
2022-08-28T22:14:49.271Z,13.52
2022-08-28T22:17:16.482Z,13.20
2022-08-28T22:19:46.417Z,11.52
2022-08-28T22:22:34.274Z,16.35
2022-08-28T22:25:01.650Z,14.02
2022-08-28T22:27:28.875Z,14.05
2022-08-28T22:29:56.514Z,16.17
2022-08-28T22:32:25.679Z,15.32
2022-08-28T22:34:54.615Z,16.55
2022-08-28T22:37:22.957Z,16.85
2022-08-28T22:39:50.122Z,16.95
2022-08-28T22:42:17.303Z,14.02
2022-08-28T22:44:44.486Z,16.67
2022-08-28T22:47:11.823Z,17.15
2022-08-28T22:49:39.603Z,18.10
2022-08-28T22:52:07.038Z,13.13
2022-08-28T22:54:34.223Z,17.42
2022-08-28T22:57:01.362Z,14.80
2022-08-28T22:59:28.554Z,12.77
2022-08-28T23:01:58.750Z,15.85
2022-08-28T23:04:26.505Z,13.85
2022-08-28T23:06:54.068Z,14.00
2022-08-28T23:09:21.354Z,11.75
2022-08-28T23:11:49.507Z,14.60
2022-08-28T23:14:16.687Z,13.00
2022-08-28T23:16:44.141Z,14.65
2022-08-28T23:19:13.551Z,13.27
2022-08-28T23:21:44.226Z,16.25
2022-08-28T23:24:12.581Z,14.23
2022-08-28T23:26:39.743Z,12.52
2022-08-28T23:29:06.985Z,14.07
2022-08-28T23:31:34.232Z,13.77
2022-08-28T23:34:02.223Z,11.63
2022-08-28T23:36:29.417Z,10.73
2022-08-28T23:38:56.610Z,15.05
2022-08-28T23:41:24.735Z,11.02
2022-08-28T23:43:52.223Z,11.10
2022-08-28T23:46:20.095Z,10.68
2022-08-28T23:48:49.550Z,11.43
2022-08-28T23:51:17.475Z,10.70
2022-08-28T23:53:45.567Z,13.45
2022-08-28T23:56:14.700Z,14.07
2022-08-28T23:58:43.231Z,12.93
